sensor_id;sensor_type;location;lat;lon;timestamp;pressure;altitude;pressure_sealevel;temperature;humidity
7594;BME280;3838;43.124;25.686;2024-01-10T00:01:07;100938.72;;;17.71;60.61
7594;BME280;3838;43.124;25.686;2024-01-10T00:03:32;100937.84;;;17.71;60.74
7594;BME280;3838;43.124;25.686;2024-01-10T00:05:58;100946.34;;;17.71;60.71
7594;BME280;3838;43.124;25.686;2024-01-10T00:08:23;100947.94;;;17.69;60.52
7594;BME280;3838;43.124;25.686;2024-01-10T00:10:48;100947.22;;;17.72;60.47
7594;BME280;3838;43.124;25.686;2024-01-10T00:13:14;100953.13;;;17.71;60.15
7594;BME280;3838;43.124;25.686;2024-01-10T00:15:39;100951.28;;;17.68;60.62
7594;BME280;3838;43.124;25.686;2024-01-10T00:18:05;100952.16;;;17.69;60.40
7594;BME280;3838;43.124;25.686;2024-01-10T00:20:30;100955.59;;;17.69;60.46
7594;BME280;3838;43.124;25.686;2024-01-10T00:22:56;100962.34;;;17.69;60.39
7594;BME280;3838;43.124;25.686;2024-01-10T00:25:21;100965.88;;;17.71;60.37
7594;BME280;3838;43.124;25.686;2024-01-10T00:27:47;100966.66;;;17.70;60.71
7594;BME280;3838;43.124;25.686;2024-01-10T00:30:12;100960.69;;;17.69;60.24
7594;BME280;3838;43.124;25.686;2024-01-10T00:32:38;100964.91;;;17.69;60.53
7594;BME280;3838;43.124;25.686;2024-01-10T00:35:03;100966.66;;;17.70;60.27
7594;BME280;3838;43.124;25.686;2024-01-10T00:37:29;100968.31;;;17.69;60.66
7594;BME280;3838;43.124;25.686;2024-01-10T00:39:54;100971.75;;;17.70;60.69
7594;BME280;3838;43.124;25.686;2024-01-10T00:42:19;100973.41;;;17.69;60.54
7594;BME280;3838;43.124;25.686;2024-01-10T00:44:45;100974.22;;;17.68;60.48
7594;BME280;3838;43.124;25.686;2024-01-10T00:47:11;100971.66;;;17.68;60.39
7594;BME280;3838;43.124;25.686;2024-01-10T00:49:36;100967.44;;;17.69;60.82
7594;BME280;3838;43.124;25.686;2024-01-10T00:52:02;100972.53;;;17.69;60.63
7594;BME280;3838;43.124;25.686;2024-01-10T00:54:27;100971.75;;;17.70;60.23
7594;BME280;3838;43.124;25.686;2024-01-10T00:56:53;100975.97;;;17.69;60.59
7594;BME280;3838;43.124;25.686;2024-01-10T00:59:18;100967.34;;;17.67;60.34
7594;BME280;3838;43.124;25.686;2024-01-10T01:01:44;100960.50;;;17.66;60.29
7594;BME280;3838;43.124;25.686;2024-01-10T01:04:09;100963.06;;;17.66;60.31
7594;BME280;3838;43.124;25.686;2024-01-10T01:06:34;100962.25;;;17.67;60.76
7594;BME280;3838;43.124;25.686;2024-01-10T01:09:00;100963.13;;;17.68;60.37
7594;BME280;3838;43.124;25.686;2024-01-10T01:11:25;100958.84;;;17.67;60.69
7594;BME280;3838;43.124;25.686;2024-01-10T01:13:50;100952.94;;;17.68;60.25
7594;BME280;3838;43.124;25.686;2024-01-10T01:16:16;100948.63;;;17.67;60.42
7594;BME280;3838;43.124;25.686;2024-01-10T01:18:41;100948.63;;;17.67;60.58
7594;BME280;3838;43.124;25.686;2024-01-10T01:21:11;100945.31;;;17.68;60.69
7594;BME280;3838;43.124;25.686;2024-01-10T01:23:36;100940.00;;;17.65;60.59
7594;BME280;3838;43.124;25.686;2024-01-10T01:26:01;100940.88;;;17.65;60.46
7594;BME280;3838;43.124;25.686;2024-01-10T01:28:29;100940.88;;;17.65;60.14
7594;BME280;3838;43.124;25.686;2024-01-10T01:30:54;100934.88;;;17.65;60.46
7594;BME280;3838;43.124;25.686;2024-01-10T01:33:20;100937.56;;;17.66;60.33
7594;BME280;3838;43.124;25.686;2024-01-10T01:35:45;100936.69;;;17.66;60.33
7594;BME280;3838;43.124;25.686;2024-01-10T01:38:10;100938.44;;;17.67;60.12
7594;BME280;3838;43.124;25.686;2024-01-10T01:40:36;100942.53;;;17.65;60.13
7594;BME280;3838;43.124;25.686;2024-01-10T01:43:18;100934.81;;;17.63;60.37
7594;BME280;3838;43.124;25.686;2024-01-10T01:45:44;100935.91;;;17.67;60.50
7594;BME280;3838;43.124;25.686;2024-01-10T01:48:09;100938.31;;;17.65;60.32
7594;BME280;3838;43.124;25.686;2024-01-10T01:50:35;100933.22;;;17.65;60.46
7594;BME280;3838;43.124;25.686;2024-01-10T01:53:00;100930.69;;;17.65;60.29
7594;BME280;3838;43.124;25.686;2024-01-10T01:55:26;100938.22;;;17.64;60.53
7594;BME280;3838;43.124;25.686;2024-01-10T01:57:51;100932.25;;;17.63;60.31
7594;BME280;3838;43.124;25.686;2024-01-10T02:00:17;100928.13;;;17.65;59.97
7594;BME280;3838;43.124;25.686;2024-01-10T02:02:43;100894.81;;;17.47;60.20
7594;BME280;3838;43.124;25.686;2024-01-10T02:05:09;100922.06;;;17.63;60.59
7594;BME280;3838;43.124;25.686;2024-01-10T02:07:35;100928.81;;;17.63;60.25
7594;BME280;3838;43.124;25.686;2024-01-10T02:10:00;100924.59;;;17.63;60.51
7594;BME280;3838;43.124;25.686;2024-01-10T02:12:25;100921.97;;;17.62;60.55
7594;BME280;3838;43.124;25.686;2024-01-10T02:14:52;100921.41;;;17.66;60.93
7594;BME280;3838;43.124;25.686;2024-01-10T02:17:17;100914.81;;;17.69;60.90
7594;BME280;3838;43.124;25.686;2024-01-10T02:19:42;100923.31;;;17.70;60.79
7594;BME280;3838;43.124;25.686;2024-01-10T02:22:08;100918.31;;;17.71;60.55
7594;BME280;3838;43.124;25.686;2024-01-10T02:24:33;100916.75;;;17.73;60.48
7594;BME280;3838;43.124;25.686;2024-01-10T02:26:59;100923.59;;;17.74;60.34
7594;BME280;3838;43.124;25.686;2024-01-10T02:29:24;100916.81;;;17.75;60.40
7594;BME280;3838;43.124;25.686;2024-01-10T02:31:50;100920.16;;;17.74;60.51
7594;BME280;3838;43.124;25.686;2024-01-10T02:34:15;100919.38;;;17.75;60.65
7594;BME280;3838;43.124;25.686;2024-01-10T02:36:41;100927.03;;;17.75;60.49
7594;BME280;3838;43.124;25.686;2024-01-10T02:39:06;100916.81;;;17.75;60.36
7594;BME280;3838;43.124;25.686;2024-01-10T02:41:31;100916.81;;;17.75;60.29
7594;BME280;3838;43.124;25.686;2024-01-10T02:43:57;100921.94;;;17.75;60.40
7594;BME280;3838;43.124;25.686;2024-01-10T02:46:25;100932.91;;;17.74;60.52
7594;BME280;3838;43.124;25.686;2024-01-10T02:48:53;100917.63;;;17.74;60.43
7594;BME280;3838;43.124;25.686;2024-01-10T02:51:18;100921.94;;;17.75;60.38
7594;BME280;3838;43.124;25.686;2024-01-10T02:53:44;100914.28;;;17.75;60.37
7594;BME280;3838;43.124;25.686;2024-01-10T02:56:09;100916.03;;;17.76;60.33
7594;BME280;3838;43.124;25.686;2024-01-10T02:58:34;100918.66;;;17.77;60.06
7594;BME280;3838;43.124;25.686;2024-01-10T03:01:00;100920.34;;;17.77;60.15
7594;BME280;3838;43.124;25.686;2024-01-10T03:03:26;100918.59;;;17.76;60.30
7594;BME280;3838;43.124;25.686;2024-01-10T03:05:51;100922.81;;;17.75;60.20
7594;BME280;3838;43.124;25.686;2024-01-10T03:08:17;100924.56;;;17.76;60.19
7594;BME280;3838;43.124;25.686;2024-01-10T03:10:42;100921.13;;;17.76;60.06
7594;BME280;3838;43.124;25.686;2024-01-10T03:13:08;100918.59;;;17.76;60.30
7594;BME280;3838;43.124;25.686;2024-01-10T03:15:33;100914.38;;;17.76;60.33
7594;BME280;3838;43.124;25.686;2024-01-10T03:17:58;100910.16;;;17.77;59.79
7594;BME280;3838;43.124;25.686;2024-01-10T03:20:24;100903.28;;;17.76;59.94
7594;BME280;3838;43.124;25.686;2024-01-10T03:22:49;100910.16;;;17.77;60.04
7594;BME280;3838;43.124;25.686;2024-01-10T03:25:14;100906.81;;;17.78;60.07
7594;BME280;3838;43.124;25.686;2024-01-10T03:27:40;100908.47;;;17.77;59.87
7594;BME280;3838;43.124;25.686;2024-01-10T03:30:06;100913.56;;;17.77;60.06
7594;BME280;3838;43.124;25.686;2024-01-10T03:32:31;100914.38;;;17.76;59.96
7594;BME280;3838;43.124;25.686;2024-01-10T03:34:57;100915.25;;;17.77;60.09
7594;BME280;3838;43.124;25.686;2024-01-10T03:37:22;100913.50;;;17.76;59.87
7594;BME280;3838;43.124;25.686;2024-01-10T03:39:48;100910.94;;;17.76;59.98
7594;BME280;3838;43.124;25.686;2024-01-10T03:42:13;100913.56;;;17.77;59.92
7594;BME280;3838;43.124;25.686;2024-01-10T03:44:41;100911.91;;;17.78;59.72
7594;BME280;3838;43.124;25.686;2024-01-10T03:47:06;100911.03;;;17.77;59.89
7594;BME280;3838;43.124;25.686;2024-01-10T03:49:32;100913.56;;;17.77;59.73
7594;BME280;3838;43.124;25.686;2024-01-10T03:51:57;100901.72;;;17.78;59.64
7594;BME280;3838;43.124;25.686;2024-01-10T03:54:22;100911.91;;;17.78;59.48
7594;BME280;3838;43.124;25.686;2024-01-10T03:56:48;100911.03;;;17.77;59.73
7594;BME280;3838;43.124;25.686;2024-01-10T03:59:13;100904.25;;;17.78;59.71
7594;BME280;3838;43.124;25.686;2024-01-10T04:01:38;100911.91;;;17.78;59.67
7594;BME280;3838;43.124;25.686;2024-01-10T04:04:04;100909.34;;;17.78;59.54
7594;BME280;3838;43.124;25.686;2024-01-10T04:06:30;100911.91;;;17.78;59.45
7594;BME280;3838;43.124;25.686;2024-01-10T04:08:55;100915.25;;;17.77;59.47
7594;BME280;3838;43.124;25.686;2024-01-10T04:11:20;100913.66;;;17.79;59.50
7594;BME280;3838;43.124;25.686;2024-01-10T04:13:46;100910.94;;;17.76;59.52
7594;BME280;3838;43.124;25.686;2024-01-10T04:16:11;100915.34;;;17.78;59.69
7594;BME280;3838;43.124;25.686;2024-01-10T04:18:38;100921.22;;;17.77;59.05
7594;BME280;3838;43.124;25.686;2024-01-10T04:21:03;100910.75;;;17.73;59.68
7594;BME280;3838;43.124;25.686;2024-01-10T04:23:29;100920.25;;;17.75;59.78
7594;BME280;3838;43.124;25.686;2024-01-10T04:25:56;100928.78;;;17.76;59.55
7594;BME280;3838;43.124;25.686;2024-01-10T04:28:21;100920.34;;;17.77;59.49
7594;BME280;3838;43.124;25.686;2024-01-10T04:30:47;100929.66;;;17.76;59.23
7594;BME280;3838;43.124;25.686;2024-01-10T04:33:12;100924.38;;;17.73;59.32
7594;BME280;3838;43.124;25.686;2024-01-10T04:35:38;100927.03;;;17.75;59.30
7594;BME280;3838;43.124;25.686;2024-01-10T04:38:03;100928.78;;;17.76;59.65
7594;BME280;3838;43.124;25.686;2024-01-10T04:40:29;100933.88;;;17.76;59.43
7594;BME280;3838;43.124;25.686;2024-01-10T04:42:54;100933.88;;;17.76;59.51
7594;BME280;3838;43.124;25.686;2024-01-10T04:45:20;100938.09;;;17.75;59.20
7594;BME280;3838;43.124;25.686;2024-01-10T04:47:45;100944.06;;;17.76;59.54
7594;BME280;3838;43.124;25.686;2024-01-10T04:50:10;100925.09;;;17.71;59.26
7594;BME280;3838;43.124;25.686;2024-01-10T04:52:36;100941.34;;;17.73;59.41
7594;BME280;3838;43.124;25.686;2024-01-10T04:55:01;100937.91;;;17.72;59.60
7594;BME280;3838;43.124;25.686;2024-01-10T04:57:28;100938.72;;;17.71;59.30
7594;BME280;3838;43.124;25.686;2024-01-10T04:59:53;100936.16;;;17.71;59.71
7594;BME280;3838;43.124;25.686;2024-01-10T05:02:19;100943.81;;;17.71;59.95
7594;BME280;3838;43.124;25.686;2024-01-10T05:04:44;100940.19;;;17.68;59.68
7594;BME280;3838;43.124;25.686;2024-01-10T05:07:10;100941.00;;;17.67;60.00
7594;BME280;3838;43.124;25.686;2024-01-10T05:09:36;100941.25;;;17.71;59.54
7594;BME280;3838;43.124;25.686;2024-01-10T05:12:02;100940.00;;;17.65;60.14
7594;BME280;3838;43.124;25.686;2024-01-10T05:14:27;100942.94;;;17.71;60.02
7594;BME280;3838;43.124;25.686;2024-01-10T05:16:53;100941.16;;;17.70;59.24
7594;BME280;3838;43.124;25.686;2024-01-10T05:19:18;100947.94;;;17.69;59.41
7594;BME280;3838;43.124;25.686;2024-01-10T05:21:44;100944.41;;;17.67;59.64
7594;BME280;3838;43.124;25.686;2024-01-10T05:24:09;100946.97;;;17.67;59.20
7594;BME280;3838;43.124;25.686;2024-01-10T05:26:35;100941.00;;;17.67;59.47
7594;BME280;3838;43.124;25.686;2024-01-10T05:29:01;100931.38;;;17.63;59.76
7594;BME280;3838;43.124;25.686;2024-01-10T05:31:26;100941.78;;;17.66;59.62
7594;BME280;3838;43.124;25.686;2024-01-10T05:33:52;100935.09;;;17.68;59.67
7594;BME280;3838;43.124;25.686;2024-01-10T05:36:21;100941.97;;;17.69;59.57
7594;BME280;3838;43.124;25.686;2024-01-10T05:38:47;100943.63;;;17.68;59.90
7594;BME280;3838;43.124;25.686;2024-01-10T05:41:13;100944.78;;;17.73;59.62
7594;BME280;3838;43.124;25.686;2024-01-10T05:43:39;100953.22;;;17.72;59.76
7594;BME280;3838;43.124;25.686;2024-01-10T05:46:05;100957.53;;;17.73;60.66
7594;BME280;3838;43.124;25.686;2024-01-10T05:48:30;100960.16;;;17.75;61.16
7594;BME280;3838;43.124;25.686;2024-01-10T05:50:55;100959.47;;;17.77;62.09
7594;BME280;3838;43.124;25.686;2024-01-10T05:53:23;100959.28;;;17.74;61.81
7594;BME280;3838;43.124;25.686;2024-01-10T05:55:49;100967.47;;;17.56;50.64
7594;BME280;3838;43.124;25.686;2024-01-10T05:58:14;100964.06;;;17.55;57.41
7594;BME280;3838;43.124;25.686;2024-01-10T06:00:39;100972.75;;;17.59;57.38
7594;BME280;3838;43.124;25.686;2024-01-10T06:03:05;100971.09;;;17.59;58.35
7594;BME280;3838;43.124;25.686;2024-01-10T06:05:30;100962.75;;;17.62;58.68
7594;BME280;3838;43.124;25.686;2024-01-10T06:07:59;100974.13;;;17.67;58.99
7594;BME280;3838;43.124;25.686;2024-01-10T06:10:24;100971.56;;;17.67;58.67
7594;BME280;3838;43.124;25.686;2024-01-10T06:12:49;100967.28;;;17.66;59.10
7594;BME280;3838;43.124;25.686;2024-01-10T06:15:15;100971.28;;;17.62;58.72
7594;BME280;3838;43.124;25.686;2024-01-10T06:17:41;100976.38;;;17.62;58.67
7594;BME280;3838;43.124;25.686;2024-01-10T06:20:07;100974.50;;;17.60;58.80
7594;BME280;3838;43.124;25.686;2024-01-10T06:22:33;100975.31;;;17.59;59.00
7594;BME280;3838;43.124;25.686;2024-01-10T06:24:58;100968.44;;;17.58;59.32
7594;BME280;3838;43.124;25.686;2024-01-10T06:27:24;100973.53;;;17.58;59.04
7594;BME280;3838;43.124;25.686;2024-01-10T06:29:49;100970.03;;;17.56;59.55
7594;BME280;3838;43.124;25.686;2024-01-10T06:32:15;100975.31;;;17.59;59.46
7594;BME280;3838;43.124;25.686;2024-01-10T06:34:40;100977.94;;;17.60;59.46
7594;BME280;3838;43.124;25.686;2024-01-10T06:37:06;100976.19;;;17.59;59.66
7594;BME280;3838;43.124;25.686;2024-01-10T06:39:34;100977.84;;;17.59;59.52
7594;BME280;3838;43.124;25.686;2024-01-10T06:42:00;100986.28;;;17.58;59.50
7594;BME280;3838;43.124;25.686;2024-01-10T06:44:25;100984.53;;;17.57;59.25
7594;BME280;3838;43.124;25.686;2024-01-10T06:46:53;100982.78;;;17.56;59.22
7594;BME280;3838;43.124;25.686;2024-01-10T06:49:18;100992.19;;;17.57;59.00
7594;BME280;3838;43.124;25.686;2024-01-10T06:51:43;100984.53;;;17.57;58.82
7594;BME280;3838;43.124;25.686;2024-01-10T06:54:09;100981.97;;;17.57;58.27
7594;BME280;3838;43.124;25.686;2024-01-10T06:56:34;100982.06;;;17.58;58.50
7594;BME280;3838;43.124;25.686;2024-01-10T06:59:00;100984.63;;;17.58;57.98
7594;BME280;3838;43.124;25.686;2024-01-10T07:01:26;100989.81;;;17.60;57.74
7594;BME280;3838;43.124;25.686;2024-01-10T07:03:53;100989.03;;;17.61;57.97
7594;BME280;3838;43.124;25.686;2024-01-10T07:06:20;100992.34;;;17.60;57.30
7594;BME280;3838;43.124;25.686;2024-01-10T07:08:50;100967.13;;;17.49;57.63
7594;BME280;3838;43.124;25.686;2024-01-10T07:11:16;100982.16;;;17.60;57.46
7594;BME280;3838;43.124;25.686;2024-01-10T07:13:42;100994.13;;;17.61;57.56
7594;BME280;3838;43.124;25.686;2024-01-10T07:16:08;100993.25;;;17.60;57.49
7594;BME280;3838;43.124;25.686;2024-01-10T07:18:33;100984.53;;;17.57;57.37
7594;BME280;3838;43.124;25.686;2024-01-10T07:20:59;100989.91;;;17.61;56.96
7594;BME280;3838;43.124;25.686;2024-01-10T07:23:25;100996.66;;;17.61;57.23
7594;BME280;3838;43.124;25.686;2024-01-10T07:25:50;100994.13;;;17.61;57.05
7594;BME280;3838;43.124;25.686;2024-01-10T07:28:16;100997.63;;;17.63;57.16
7594;BME280;3838;43.124;25.686;2024-01-10T07:30:42;100991.66;;;17.62;56.92
7594;BME280;3838;43.124;25.686;2024-01-10T07:33:10;100995.88;;;17.62;56.69
7594;BME280;3838;43.124;25.686;2024-01-10T07:35:35;100984.81;;;17.61;56.95
7594;BME280;3838;43.124;25.686;2024-01-10T07:38:01;100997.84;;;17.66;57.25
7594;BME280;3838;43.124;25.686;2024-01-10T07:40:26;100990.28;;;17.67;57.44
7594;BME280;3838;43.124;25.686;2024-01-10T07:42:52;100988.72;;;17.69;57.42
7594;BME280;3838;43.124;25.686;2024-01-10T07:45:17;100993.13;;;17.72;57.67
7594;BME280;3838;43.124;25.686;2024-01-10T07:47:43;100992.16;;;17.70;57.41
7594;BME280;3838;43.124;25.686;2024-01-10T07:50:09;100987.84;;;17.69;57.67
7594;BME280;3838;43.124;25.686;2024-01-10T07:52:36;100987.06;;;17.70;57.62
7594;BME280;3838;43.124;25.686;2024-01-10T07:55:02;100994.69;;;17.70;57.45
7594;BME280;3838;43.124;25.686;2024-01-10T07:57:30;100997.44;;;17.73;57.50
7594;BME280;3838;43.124;25.686;2024-01-10T07:59:56;101000.06;;;17.74;57.53
7594;BME280;3838;43.124;25.686;2024-01-10T08:02:21;101000.75;;;17.72;57.76
7594;BME280;3838;43.124;25.686;2024-01-10T08:04:47;101006.84;;;17.74;58.07
7594;BME280;3838;43.124;25.686;2024-01-10T08:07:13;101003.41;;;17.73;57.67
7594;BME280;3838;43.124;25.686;2024-01-10T08:09:39;101004.19;;;17.72;58.03
7594;BME280;3838;43.124;25.686;2024-01-10T08:12:04;101006.75;;;17.72;57.67
7594;BME280;3838;43.124;25.686;2024-01-10T08:14:30;101003.31;;;17.72;57.83
7594;BME280;3838;43.124;25.686;2024-01-10T08:16:55;101006.66;;;17.71;57.77
7594;BME280;3838;43.124;25.686;2024-01-10T08:19:27;101008.41;;;17.72;57.99
7594;BME280;3838;43.124;25.686;2024-01-10T08:21:53;101002.44;;;17.71;57.70
7594;BME280;3838;43.124;25.686;2024-01-10T08:24:19;101012.53;;;17.70;57.57
7594;BME280;3838;43.124;25.686;2024-01-10T08:26:45;101012.63;;;17.71;57.62
7594;BME280;3838;43.124;25.686;2024-01-10T08:29:10;101003.22;;;17.70;57.77
7594;BME280;3838;43.124;25.686;2024-01-10T08:31:35;101007.53;;;17.71;57.69
7594;BME280;3838;43.124;25.686;2024-01-10T08:34:01;101003.50;;;17.75;58.09
7594;BME280;3838;43.124;25.686;2024-01-10T08:36:26;101001.81;;;17.75;57.95
7594;BME280;3838;43.124;25.686;2024-01-10T08:38:52;101006.13;;;17.76;58.03
7594;BME280;3838;43.124;25.686;2024-01-10T08:41:18;101008.59;;;17.75;57.61
7594;BME280;3838;43.124;25.686;2024-01-10T08:43:46;101007.72;;;17.74;57.68
7594;BME280;3838;43.124;25.686;2024-01-10T08:46:11;101005.94;;;17.73;57.51
7594;BME280;3838;43.124;25.686;2024-01-10T08:48:36;101005.94;;;17.73;57.73
7594;BME280;3838;43.124;25.686;2024-01-10T08:51:02;100996.47;;;17.71;58.03
7594;BME280;3838;43.124;25.686;2024-01-10T08:53:28;101003.31;;;17.72;57.53
7594;BME280;3838;43.124;25.686;2024-01-10T08:55:53;101006.84;;;17.74;57.59
7594;BME280;3838;43.124;25.686;2024-01-10T08:58:19;100993.13;;;17.72;57.57
7594;BME280;3838;43.124;25.686;2024-01-10T09:00:44;100974.69;;;17.63;57.75
7594;BME280;3838;43.124;25.686;2024-01-10T09:03:09;101002.63;;;17.74;57.61
7594;BME280;3838;43.124;25.686;2024-01-10T09:05:35;100996.63;;;17.74;57.82
7594;BME280;3838;43.124;25.686;2024-01-10T09:08:00;100994.88;;;17.73;57.64
7594;BME280;3838;43.124;25.686;2024-01-10T09:10:26;100994.88;;;17.73;57.81
7594;BME280;3838;43.124;25.686;2024-01-10T09:12:53;100992.31;;;17.73;58.08
7594;BME280;3838;43.124;25.686;2024-01-10T09:15:19;100992.16;;;17.70;57.91
7594;BME280;3838;43.124;25.686;2024-01-10T09:17:44;100994.19;;;17.75;57.48
7594;BME280;3838;43.124;25.686;2024-01-10T09:20:11;100990.75;;;17.75;57.55
7594;BME280;3838;43.124;25.686;2024-01-10T09:22:37;100992.41;;;17.74;57.67
7594;BME280;3838;43.124;25.686;2024-01-10T09:25:06;100986.44;;;17.74;57.94
7594;BME280;3838;43.124;25.686;2024-01-10T09:27:33;100981.34;;;17.74;57.71
7594;BME280;3838;43.124;25.686;2024-01-10T09:30:02;100964.81;;;17.67;57.72
7594;BME280;3838;43.124;25.686;2024-01-10T09:32:28;100966.94;;;17.74;57.52
7594;BME280;3838;43.124;25.686;2024-01-10T09:34:55;100980.56;;;17.75;57.73
7594;BME280;3838;43.124;25.686;2024-01-10T09:37:21;100982.31;;;17.76;57.69
7594;BME280;3838;43.124;25.686;2024-01-10T09:39:46;100977.22;;;17.76;57.88
7594;BME280;3838;43.124;25.686;2024-01-10T09:42:11;100979.75;;;17.76;57.65
7594;BME280;3838;43.124;25.686;2024-01-10T09:44:37;100973.69;;;17.74;57.93
7594;BME280;3838;43.124;25.686;2024-01-10T09:47:03;100972.03;;;17.74;57.49
7594;BME280;3838;43.124;25.686;2024-01-10T09:49:28;100964.41;;;17.61;54.14
7594;BME280;3838;43.124;25.686;2024-01-10T09:51:58;100957.09;;;17.52;57.03
7594;BME280;3838;43.124;25.686;2024-01-10T09:54:30;100966.88;;;17.60;56.69
7594;BME280;3838;43.124;25.686;2024-01-10T09:56:57;100961.00;;;17.61;56.49
7594;BME280;3838;43.124;25.686;2024-01-10T09:59:22;100953.25;;;17.59;56.16
7594;BME280;3838;43.124;25.686;2024-01-10T10:01:48;100956.69;;;17.60;56.57
7594;BME280;3838;43.124;25.686;2024-01-10T10:04:15;100954.22;;;17.61;56.35
7594;BME280;3838;43.124;25.686;2024-01-10T10:06:43;100951.69;;;17.61;56.24
7594;BME280;3838;43.124;25.686;2024-01-10T10:09:09;100952.56;;;17.62;56.16
7594;BME280;3838;43.124;25.686;2024-01-10T10:11:36;100960.19;;;17.62;56.46
7594;BME280;3838;43.124;25.686;2024-01-10T10:14:21;100948.25;;;17.61;56.49
7594;BME280;3838;43.124;25.686;2024-01-10T10:16:47;100944.91;;;17.62;56.44
7594;BME280;3838;43.124;25.686;2024-01-10T10:19:22;100936.38;;;17.61;56.63
7594;BME280;3838;43.124;25.686;2024-01-10T10:21:48;100937.16;;;17.60;56.33
7594;BME280;3838;43.124;25.686;2024-01-10T10:24:13;100939.81;;;17.62;56.35
7594;BME280;3838;43.124;25.686;2024-01-10T10:26:39;100936.47;;;17.63;56.30
7594;BME280;3838;43.124;25.686;2024-01-10T10:29:06;100932.16;;;17.62;56.66
7594;BME280;3838;43.124;25.686;2024-01-10T10:31:32;100928.75;;;17.61;56.26
7594;BME280;3838;43.124;25.686;2024-01-10T10:34:00;100925.22;;;17.59;56.67
7594;BME280;3838;43.124;25.686;2024-01-10T10:36:27;100919.34;;;17.60;56.84
7594;BME280;3838;43.124;25.686;2024-01-10T10:38:52;100923.63;;;17.61;56.68
7594;BME280;3838;43.124;25.686;2024-01-10T10:41:18;100912.56;;;17.61;56.76
7594;BME280;3838;43.124;25.686;2024-01-10T10:43:44;100910.03;;;17.61;56.48
7594;BME280;3838;43.124;25.686;2024-01-10T10:46:10;100905.81;;;17.61;56.51
7594;BME280;3838;43.124;25.686;2024-01-10T10:48:40;100900.63;;;17.60;56.92
7594;BME280;3838;43.124;25.686;2024-01-10T10:51:08;100896.50;;;17.62;56.79
7594;BME280;3838;43.124;25.686;2024-01-10T10:53:38;100879.69;;;17.50;56.57
7594;BME280;3838;43.124;25.686;2024-01-10T10:56:06;100890.50;;;17.61;56.68
7594;BME280;3838;43.124;25.686;2024-01-10T10:58:34;100889.63;;;17.61;56.61
7594;BME280;3838;43.124;25.686;2024-01-10T11:01:03;100886.19;;;17.60;56.74
7594;BME280;3838;43.124;25.686;2024-01-10T11:03:31;100885.31;;;17.60;56.54
7594;BME280;3838;43.124;25.686;2024-01-10T11:05:58;100883.56;;;17.59;56.76
7594;BME280;3838;43.124;25.686;2024-01-10T11:08:26;100886.13;;;17.59;56.84
7594;BME280;3838;43.124;25.686;2024-01-10T11:10:53;100881.81;;;17.58;56.36
7594;BME280;3838;43.124;25.686;2024-01-10T11:13:49;100871.53;;;17.56;56.46
7594;BME280;3838;43.124;25.686;2024-01-10T11:16:25;100866.53;;;17.58;56.42
7594;BME280;3838;43.124;25.686;2024-01-10T11:22:00;100864.69;;;17.55;56.44
7594;BME280;3838;43.124;25.686;2024-01-10T11:24:32;100858.69;;;17.55;56.56
7594;BME280;3838;43.124;25.686;2024-01-10T11:27:27;100852.63;;;17.52;56.41
7594;BME280;3838;43.124;25.686;2024-01-10T11:29:52;100852.63;;;17.52;56.46
7594;BME280;3838;43.124;25.686;2024-01-10T11:32:22;100835.06;;;17.42;56.32
7594;BME280;3838;43.124;25.686;2024-01-10T11:37:19;100844.81;;;17.49;56.41
7594;BME280;3838;43.124;25.686;2024-01-10T11:39:44;100851.50;;;17.47;56.15
7594;BME280;3838;43.124;25.686;2024-01-10T11:42:10;100846.41;;;17.47;56.23
7594;BME280;3838;43.124;25.686;2024-01-10T11:44:49;100848.84;;;17.46;56.49
7594;BME280;3838;43.124;25.686;2024-01-10T11:47:15;100838.56;;;17.44;56.52
7594;BME280;3838;43.124;25.686;2024-01-10T11:49:54;100837.63;;;17.42;56.67
7594;BME280;3838;43.124;25.686;2024-01-10T11:52:22;100842.78;;;17.44;56.52
7594;BME280;3838;43.124;25.686;2024-01-10T11:54:48;100830.06;;;17.44;56.20
7594;BME280;3838;43.124;25.686;2024-01-10T11:57:23;100821.09;;;17.36;56.17
7594;BME280;3838;43.124;25.686;2024-01-10T11:59:51;100840.34;;;17.45;56.28
7594;BME280;3838;43.124;25.686;2024-01-10T12:02:18;100831.72;;;17.43;56.41
7594;BME280;3838;43.124;25.686;2024-01-10T12:04:44;100833.56;;;17.46;56.67
7594;BME280;3838;43.124;25.686;2024-01-10T12:07:13;100820.66;;;17.43;56.54
7594;BME280;3838;43.124;25.686;2024-01-10T12:09:39;100813.09;;;17.44;56.53
7594;BME280;3838;43.124;25.686;2024-01-10T12:12:05;100826.81;;;17.46;56.65
7594;BME280;3838;43.124;25.686;2024-01-10T12:14:31;100827.69;;;17.47;56.73
7594;BME280;3838;43.124;25.686;2024-01-10T12:16:59;100824.25;;;17.46;56.66
7594;BME280;3838;43.124;25.686;2024-01-10T12:19:25;100817.41;;;17.45;56.92
7594;BME280;3838;43.124;25.686;2024-01-10T12:21:51;100815.75;;;17.46;56.93
7594;BME280;3838;43.124;25.686;2024-01-10T12:24:17;100817.50;;;17.47;56.52
7594;BME280;3838;43.124;25.686;2024-01-10T12:26:47;100814.94;;;17.47;56.86
7594;BME280;3838;43.124;25.686;2024-01-10T12:29:12;100808.97;;;17.46;56.56
7594;BME280;3838;43.124;25.686;2024-01-10T12:31:38;100812.41;;;17.47;57.01
7594;BME280;3838;43.124;25.686;2024-01-10T12:34:06;100802.03;;;17.44;56.62
7594;BME280;3838;43.124;25.686;2024-01-10T12:36:32;100809.94;;;17.48;56.74
7594;BME280;3838;43.124;25.686;2024-01-10T12:38:58;100810.72;;;17.47;56.56
7594;BME280;3838;43.124;25.686;2024-01-10T12:41:23;100812.47;;;17.48;56.92
7594;BME280;3838;43.124;25.686;2024-01-10T12:43:51;100798.69;;;17.45;56.67
7594;BME280;3838;43.124;25.686;2024-01-10T12:46:17;100814.25;;;17.49;57.13
7594;BME280;3838;43.124;25.686;2024-01-10T12:48:42;100805.91;;;17.52;57.01
7594;BME280;3838;43.124;25.686;2024-01-10T12:51:09;100811.16;;;17.55;56.85
7594;BME280;3838;43.124;25.686;2024-01-10T12:56:02;100800.88;;;17.53;56.91
7594;BME280;3838;43.124;25.686;2024-01-10T12:58:28;100794.91;;;17.53;57.24
7594;BME280;3838;43.124;25.686;2024-01-10T13:00:54;100807.13;;;17.59;57.13
7594;BME280;3838;43.124;25.686;2024-01-10T13:03:19;100802.81;;;17.58;57.19